createdAt,value
2023-05-05T00:00:16.118Z,11.69
2023-05-05T00:05:19.162Z,11.65
2023-05-05T00:10:22.301Z,11.63
2023-05-05T00:15:27.374Z,11.55
2023-05-05T00:20:30.457Z,11.55
2023-05-05T00:25:33.513Z,11.45
2023-05-05T00:30:38.232Z,11.40
2023-05-05T00:35:41.598Z,11.34
2023-05-05T00:40:44.638Z,11.26
2023-05-05T00:45:55.731Z,11.22
2023-05-05T00:50:59.235Z,11.18
2023-05-05T00:56:02.636Z,11.24
2023-05-05T01:01:07.515Z,11.24
2023-05-05T01:06:23.836Z,11.30
2023-05-05T01:11:33.539Z,11.35
2023-05-05T01:16:41.491Z,11.29
2023-05-05T01:21:49.424Z,11.34
2023-05-05T01:27:01.390Z,11.41
2023-05-05T01:32:11.008Z,11.44
2023-05-05T01:37:20.718Z,11.35
2023-05-05T01:42:26.637Z,11.30
2023-05-05T01:47:32.282Z,11.22
2023-05-05T01:52:37.830Z,11.15
2023-05-05T01:57:43.740Z,11.02
2023-05-05T02:02:50.787Z,10.85
2023-05-05T02:07:58.128Z,10.63
2023-05-05T02:13:02.868Z,10.39
2023-05-05T02:18:08.158Z,10.25
2023-05-05T02:23:11.599Z,10.13
2023-05-05T02:28:22.186Z,10.08
2023-05-05T02:33:29.237Z,9.98
2023-05-05T02:38:34.565Z,10.08
2023-05-05T02:43:41.950Z,10.21
2023-05-05T02:48:47.047Z,10.23
2023-05-05T02:53:50.656Z,10.21
2023-05-05T02:58:58.252Z,10.10
2023-05-05T03:04:08.158Z,10.05
2023-05-05T03:09:14.333Z,10.06
2023-05-05T03:14:21.504Z,10.04
2023-05-05T03:19:27.402Z,9.93
2023-05-05T03:24:30.467Z,9.86
2023-05-05T03:29:33.480Z,9.83
2023-05-05T03:34:38.039Z,9.86
2023-05-05T03:39:41.061Z,9.87
2023-05-05T03:44:44.133Z,9.91
2023-05-05T03:49:48.569Z,9.96
2023-05-05T03:54:51.575Z,10.01
2023-05-05T03:59:54.646Z,10.08
2023-05-05T04:04:59.452Z,10.08
2023-05-05T04:10:02.491Z,10.08
2023-05-05T04:15:06.802Z,10.15
2023-05-05T04:20:12.079Z,10.27
2023-05-05T04:25:15.390Z,10.25
2023-05-05T04:30:18.471Z,10.31
2023-05-05T04:35:23.467Z,10.39
2023-05-05T04:40:27.094Z,10.49
2023-05-05T04:45:30.492Z,10.66
2023-05-05T04:50:34.864Z,10.84
2023-05-05T04:55:38.098Z,11.05
2023-05-05T05:00:41.199Z,11.25
2023-05-05T05:05:45.992Z,11.48
2023-05-05T05:10:49.286Z,11.57
2023-05-05T05:15:52.531Z,11.62
2023-05-05T05:20:57.662Z,11.69
2023-05-05T05:26:01.258Z,11.81
2023-05-05T05:31:04.812Z,11.87
2023-05-05T05:36:09.694Z,11.99
2023-05-05T05:41:12.757Z,12.19
2023-05-05T05:46:15.873Z,12.34
2023-05-05T05:51:20.290Z,12.58
2023-05-05T05:56:23.944Z,12.73
2023-05-05T06:01:27.310Z,12.83
2023-05-05T06:06:31.754Z,12.94
2023-05-05T06:11:34.973Z,13.15
2023-05-05T06:16:38.010Z,13.35
2023-05-05T06:21:42.470Z,13.49
2023-05-05T06:26:45.494Z,13.63
2023-05-05T06:31:48.582Z,14.11
2023-05-05T06:36:53.035Z,14.61
2023-05-05T06:41:56.265Z,15.26
2023-05-05T06:46:59.379Z,15.97
2023-05-05T06:52:03.749Z,16.41
2023-05-05T06:57:06.769Z,16.47
2023-05-05T07:02:09.777Z,16.54
2023-05-05T07:07:14.100Z,17.07
2023-05-05T07:12:17.280Z,17.75
2023-05-05T07:17:20.301Z,18.12
2023-05-05T07:22:24.749Z,18.64
2023-05-05T07:27:27.783Z,19.67
2023-05-05T07:32:31.370Z,19.96
2023-05-05T07:37:36.192Z,20.04
2023-05-05T07:42:39.371Z,19.79
2023-05-05T07:47:42.469Z,20.16
2023-05-05T07:52:51.868Z,20.30
2023-05-05T07:58:03.980Z,20.79
2023-05-05T08:03:09.678Z,20.45
2023-05-05T08:08:15.802Z,20.28
2023-05-05T08:13:19.085Z,20.74
2023-05-05T08:18:22.112Z,21.38
2023-05-05T08:23:26.464Z,21.63
2023-05-05T08:28:30.046Z,21.63
2023-05-05T08:33:33.098Z,22.70
2023-05-05T08:38:37.452Z,22.56
2023-05-05T08:43:41.156Z,22.84
2023-05-05T08:48:45.790Z,23.16
2023-05-05T08:53:58.223Z,23.06
2023-05-05T08:59:01.530Z,22.93
2023-05-05T09:04:07.927Z,23.28
2023-05-05T09:09:12.734Z,22.88
2023-05-05T09:14:15.846Z,21.42
2023-05-05T09:19:18.876Z,20.43
2023-05-05T09:24:23.298Z,20.35
2023-05-05T09:29:27.175Z,20.87
2023-05-05T09:34:30.200Z,21.86
2023-05-05T09:39:34.640Z,22.58
2023-05-05T09:44:39.911Z,23.64
2023-05-05T09:49:43.030Z,23.85
2023-05-05T09:54:55.033Z,23.86
2023-05-05T09:59:59.692Z,23.05
2023-05-05T10:05:07.506Z,22.40
2023-05-05T10:10:13.871Z,21.92
2023-05-05T10:15:17.416Z,21.62
2023-05-05T10:20:21.922Z,21.15
2023-05-05T10:25:31.381Z,20.73
2023-05-05T10:30:40.218Z,20.74
2023-05-05T10:35:45.691Z,20.83
2023-05-05T10:40:51.297Z,20.89
2023-05-05T10:45:55.671Z,21.13
2023-05-05T10:51:15.350Z,21.22
2023-05-05T10:56:32.454Z,21.19
2023-05-05T11:01:36.943Z,21.17
2023-05-05T11:06:40.014Z,20.81
2023-05-05T11:12:06.560Z,20.45
2023-05-05T11:17:45.194Z,19.52
2023-05-05T11:23:25.338Z,18.60
2023-05-05T11:28:31.501Z,17.87
2023-05-05T11:33:36.826Z,17.47
2023-05-05T11:38:57.509Z,17.38
2023-05-05T11:44:11.741Z,17.45
2023-05-05T11:49:27.604Z,17.52
2023-05-05T11:54:31.454Z,17.72
2023-05-05T11:59:37.920Z,17.95
2023-05-05T12:04:41.389Z,18.05
2023-05-05T12:09:45.871Z,18.23
2023-05-05T12:14:52.855Z,18.54
2023-05-05T12:19:56.285Z,19.45
2023-05-05T12:25:02.522Z,20.15
2023-05-05T12:30:15.490Z,20.10
2023-05-05T12:35:20.202Z,20.13
2023-05-05T12:40:45.650Z,20.24
2023-05-05T12:45:58.957Z,20.38
2023-05-05T12:51:27.034Z,20.15
2023-05-05T12:56:40.814Z,19.78
2023-05-05T13:01:51.952Z,19.47
2023-05-05T13:07:12.207Z,19.21
2023-05-05T13:12:16.401Z,18.88
2023-05-05T13:17:20.813Z,18.77
2023-05-05T13:22:23.844Z,19.23
2023-05-05T13:27:27.056Z,20.00
2023-05-05T13:32:31.517Z,20.70
2023-05-05T13:37:34.774Z,20.74
2023-05-05T13:42:38.035Z,20.97
2023-05-05T13:47:44.425Z,20.94
2023-05-05T13:52:47.552Z,20.99
2023-05-05T13:57:51.605Z,20.77
2023-05-05T14:02:56.001Z,21.15
2023-05-05T14:07:59.568Z,20.76
2023-05-05T14:13:03.268Z,20.49
2023-05-05T14:18:07.782Z,20.52
2023-05-05T14:23:10.892Z,21.05
2023-05-05T14:28:14.011Z,21.15
2023-05-05T14:33:18.446Z,21.34
2023-05-05T14:38:21.745Z,21.28
2023-05-05T14:43:25.243Z,21.07
2023-05-05T14:48:29.616Z,21.31
2023-05-05T14:53:33.332Z,21.28
2023-05-05T14:58:36.508Z,21.37
2023-05-05T15:03:41.157Z,21.27
2023-05-05T15:08:44.295Z,21.01
2023-05-05T15:13:47.343Z,20.83
2023-05-05T15:18:52.134Z,20.55
2023-05-05T15:23:55.218Z,20.17
2023-05-05T15:28:58.236Z,19.89
2023-05-05T15:34:03.125Z,19.88
2023-05-05T15:39:06.179Z,19.71
2023-05-05T15:44:12.073Z,19.57
2023-05-05T15:49:16.462Z,19.46
2023-05-05T15:54:19.510Z,19.37
2023-05-05T15:59:22.577Z,19.22
2023-05-05T16:04:27.067Z,19.14
2023-05-05T16:09:30.506Z,19.09
2023-05-05T16:14:34.045Z,18.96
2023-05-05T16:19:38.561Z,18.74
2023-05-05T16:24:44.226Z,18.54
2023-05-05T16:29:47.462Z,18.38
2023-05-05T16:34:51.993Z,18.21
2023-05-05T16:39:55.049Z,18.10
2023-05-05T16:44:58.272Z,17.88
2023-05-05T16:50:02.688Z,17.66
2023-05-05T16:55:06.485Z,17.46
2023-05-05T17:00:10.536Z,17.39
2023-05-05T17:05:15.021Z,17.17
2023-05-05T17:10:18.118Z,17.02
2023-05-05T17:15:21.553Z,16.86
2023-05-05T17:20:26.577Z,16.64
2023-05-05T17:25:29.744Z,16.44
2023-05-05T17:30:32.735Z,16.37
2023-05-05T17:35:38.416Z,16.16
2023-05-05T17:40:41.413Z,16.11
2023-05-05T17:45:44.474Z,16.04
2023-05-05T17:50:49.129Z,15.89
2023-05-05T17:55:52.152Z,15.71
2023-05-05T18:00:55.219Z,15.64
2023-05-05T18:05:59.656Z,15.47
2023-05-05T18:11:02.864Z,15.40
2023-05-05T18:16:07.024Z,15.31
2023-05-05T18:21:12.177Z,15.18
2023-05-05T18:26:15.482Z,15.06
2023-05-05T18:31:18.634Z,14.89
2023-05-05T18:36:23.170Z,14.80
2023-05-05T18:41:26.656Z,14.82
2023-05-05T18:46:29.756Z,14.82
2023-05-05T18:51:34.153Z,14.83
2023-05-05T18:56:37.401Z,14.73
2023-05-05T19:01:41.397Z,14.62
2023-05-05T19:06:47.330Z,14.57
2023-05-05T19:11:50.891Z,14.55
2023-05-05T19:16:55.619Z,14.56
2023-05-05T19:22:02.207Z,14.47
2023-05-05T19:27:08.157Z,14.42
2023-05-05T19:32:11.235Z,14.40
2023-05-05T19:37:15.997Z,14.27
2023-05-05T19:42:19.208Z,14.09
2023-05-05T19:47:22.274Z,13.99
2023-05-05T19:52:26.742Z,13.78
2023-05-05T19:57:29.746Z,13.52
2023-05-05T20:02:34.744Z,13.40
2023-05-05T20:07:42.055Z,13.34
2023-05-05T20:12:48.178Z,13.27
2023-05-05T20:17:51.988Z,13.31
2023-05-05T20:22:56.333Z,13.33
2023-05-05T20:27:59.491Z,13.40
2023-05-05T20:33:02.575Z,13.50
2023-05-05T20:38:07.127Z,13.55
2023-05-05T20:43:10.246Z,13.59
2023-05-05T20:48:13.283Z,13.56
2023-05-05T20:53:18.838Z,13.59
2023-05-05T20:58:21.888Z,13.63
2023-05-05T21:03:24.957Z,13.60
2023-05-05T21:08:30.404Z,13.59
2023-05-05T21:13:33.625Z,13.61
2023-05-05T21:18:36.946Z,13.64
2023-05-05T21:23:41.296Z,13.62
2023-05-05T21:28:44.331Z,13.59
2023-05-05T21:33:47.393Z,13.50
2023-05-05T21:38:51.766Z,13.41
2023-05-05T21:43:54.793Z,13.38
2023-05-05T21:48:58.164Z,13.32
2023-05-05T21:54:02.755Z,13.35
2023-05-05T21:59:06.527Z,13.37
2023-05-05T22:04:09.592Z,13.36
2023-05-05T22:09:13.951Z,13.28
2023-05-05T22:14:17.005Z,13.27
2023-05-05T22:19:20.033Z,13.25
2023-05-05T22:24:24.381Z,13.36
2023-05-05T22:29:27.404Z,13.41
2023-05-05T22:34:30.657Z,13.45
2023-05-05T22:39:35.105Z,13.47
2023-05-05T22:44:39.232Z,13.50
2023-05-05T22:49:42.299Z,13.45
2023-05-05T22:54:46.656Z,13.31
2023-05-05T22:59:49.801Z,13.21
2023-05-05T23:04:53.316Z,13.11
2023-05-05T23:09:58.916Z,12.99
2023-05-05T23:15:01.997Z,12.77
2023-05-05T23:20:06.485Z,12.72
2023-05-05T23:25:11.572Z,12.78
2023-05-05T23:30:15.350Z,12.67
2023-05-05T23:35:18.863Z,12.60
2023-05-05T23:40:23.421Z,12.56
2023-05-05T23:45:26.424Z,12.45
2023-05-05T23:50:30.092Z,12.36
2023-05-05T23:55:34.441Z,12.22
